Ameagle, WV

2:22 AM EDT on August 30, 2014 (GMT -0400)
Joes Creek | Change Station
CLOSE
Current Station
Personal Weather Station
Location: Comfort, WV
Elevation: 784 ft
Nearby Weather Stations

Elev 784 ft 38.12 °N, 81.59 °W | Updated 40 seconds ago

Partly Cloudy
Partly Cloudy
68.7 °F
Feels Like 68.7 °F
N
0.0
Wind Variable Wind from ESE
Gusts 0.0 mph

Today
High -- | Low -- °F
--% Chance of Precip.
Yesterday
High -- | Low -- °F
Precip. -- in
6:54 AM 7:58 PM
Waxing Crescent, 19% visible
Pressure 30.13 in
Visibility 10.0 miles
Clouds Mostly Cloudy 8000 ft
Overcast 10000 ft
Dew Point 68 °F
Humidity 98%
Rainfall 0.00 in
Snow Depth Not available.
UV 0 out of 12
Pollen 9.90 out of 12
Air Quality Not available.
Flu Activity Not available.
METAR KBKW 300551Z AUTO 15009KT 10SM BKN080 OVC100 21/18 A3023 RMK AO2 SLP202 T02060178 10239 20206 53007 TSNO

More Conditions Fewer Conditions

Pressure 30.13 in
Visibility 10.0 miles
Clouds Mostly Cloudy 8000 ft
Overcast 10000 ft
Dew Point 68 °F
Humidity 98%
Rainfall 0.00 in
Snow Depth Not available.
UV 0 out of 12
Pollen 9.90 out of 12
Air Quality Not available.
Flu Activity Not available.
METAR KBKW 300551Z AUTO 15009KT 10SM BKN080 OVC100 21/18 A3023 RMK AO2 SLP202 T02060178 10239 20206 53007 TSNO

More Conditions Fewer Conditions

10-Day Weather Forecast

Almanac

Astronomy

Aug. 30, 2014 Rise Set
Actual Time 6:54 AM EDT 7:58 PM EDT
Civil Twilight 6:27 AM EDT 8:25 PM EDT
Nautical Twilight 5:54 AM EDT 8:57 PM EDT
Astronomical Twilight 5:21 AM EDT 9:30 PM EDT
Moon 11:35 AM EDT 10:37 PM EDT
Length of Visible Light 13h 58m
Length of Day
13h 04m
Tomorrow will be 2m 20s shorter.
Waxing Crescent, 19% of the Moon is Illuminated
Today
Waxing Crescent
Sep 2
First Quarter
Sep 8
Full
Sep 15
Last Quarter
Sep 24
New

Today's Extremes

State Highs State Lows

Community

WunderPhotos

Upload Photos

1,748,465 photos uploaded!

Nearby

Snow Depth

Station Depth Elevation
No new snow has been reported.

Earthquake Activity

City Distance Mag. Time & Date
No recent earthquake activity has been reported nearby.
Minimum magnitude displayed is 2.5.

Coastal Water Temperatures

Place Temperature
No Stations Reporting

Nearby Weather Stations